Qiqihar, China
Current Conditions -  °F | °C
As of 6:00 AM on Wednesday 26 Nov 2014 (Local Time) from ZYHB Reporting Station
Clear Clear  
Wind Chill: 17°   Ceiling: Unl
Heat Index: 28°   Visibility: 6mi
Dew Point: 19°   Wind: 16mph
Humidity: 69%   Direction: 160°SSE
Pressure: 29.8"   Gusts: NA
Location:  47.35°N, 124°E
Report Text: ZYHB 252200Z 16007MPS CAVOK M02/M07 Q1009 NOSIG
Loading
Personal Weather Stations






























Interactive Weather Map New forecast layout! Learn more

10-Day Weather Forecast

Advertisements
Track Severe Weather on mobile